sensor_id;sensor_type;location;lat;lon;timestamp;temperature;humidity
28171;DHT22;15458;53.346;-1.688;2024-02-04T00:01:41;7.60;99.90
28171;DHT22;15458;53.346;-1.688;2024-02-04T00:04:07;7.60;99.90
28171;DHT22;15458;53.346;-1.688;2024-02-04T00:06:33;7.60;99.90
28171;DHT22;15458;53.346;-1.688;2024-02-04T00:08:58;7.60;99.90
28171;DHT22;15458;53.346;-1.688;2024-02-04T00:11:24;7.60;99.90
28171;DHT22;15458;53.346;-1.688;2024-02-04T00:13:51;7.60;99.90
28171;DHT22;15458;53.346;-1.688;2024-02-04T00:16:18;7.60;99.90
28171;DHT22;15458;53.346;-1.688;2024-02-04T00:18:45;7.60;99.90
28171;DHT22;15458;53.346;-1.688;2024-02-04T00:21:12;7.60;99.90
28171;DHT22;15458;53.346;-1.688;2024-02-04T00:23:38;7.60;99.90
28171;DHT22;15458;53.346;-1.688;2024-02-04T00:26:04;7.60;99.90
28171;DHT22;15458;53.346;-1.688;2024-02-04T00:28:29;7.70;99.90
28171;DHT22;15458;53.346;-1.688;2024-02-04T00:30:55;7.70;99.90
28171;DHT22;15458;53.346;-1.688;2024-02-04T00:33:23;7.70;99.90
28171;DHT22;15458;53.346;-1.688;2024-02-04T00:35:49;7.70;99.90
28171;DHT22;15458;53.346;-1.688;2024-02-04T00:38:14;7.70;99.90
28171;DHT22;15458;53.346;-1.688;2024-02-04T00:40:40;7.60;99.90
28171;DHT22;15458;53.346;-1.688;2024-02-04T00:43:06;7.60;99.90
28171;DHT22;15458;53.346;-1.688;2024-02-04T00:45:32;7.70;99.90
28171;DHT22;15458;53.346;-1.688;2024-02-04T00:47:59;7.70;99.90
28171;DHT22;15458;53.346;-1.688;2024-02-04T00:50:24;7.60;99.90
28171;DHT22;15458;53.346;-1.688;2024-02-04T00:52:50;7.60;99.90
28171;DHT22;15458;53.346;-1.688;2024-02-04T00:55:19;7.60;99.90
28171;DHT22;15458;53.346;-1.688;2024-02-04T00:57:45;7.60;99.90
28171;DHT22;15458;53.346;-1.688;2024-02-04T01:00:11;7.60;99.90
28171;DHT22;15458;53.346;-1.688;2024-02-04T01:02:40;7.60;99.90
28171;DHT22;15458;53.346;-1.688;2024-02-04T01:05:06;7.60;99.90
28171;DHT22;15458;53.346;-1.688;2024-02-04T01:07:32;7.60;99.90
28171;DHT22;15458;53.346;-1.688;2024-02-04T01:09:58;7.60;99.90
28171;DHT22;15458;53.346;-1.688;2024-02-04T01:12:23;7.60;99.90
28171;DHT22;15458;53.346;-1.688;2024-02-04T01:14:49;7.60;99.90
28171;DHT22;15458;53.346;-1.688;2024-02-04T01:17:15;7.50;99.90
28171;DHT22;15458;53.346;-1.688;2024-02-04T01:19:40;7.50;99.90
28171;DHT22;15458;53.346;-1.688;2024-02-04T01:22:06;7.50;99.90
28171;DHT22;15458;53.346;-1.688;2024-02-04T01:24:32;7.50;99.90
28171;DHT22;15458;53.346;-1.688;2024-02-04T01:26:58;7.50;99.90
28171;DHT22;15458;53.346;-1.688;2024-02-04T01:29:24;7.50;99.90
28171;DHT22;15458;53.346;-1.688;2024-02-04T01:31:49;7.50;99.90
28171;DHT22;15458;53.346;-1.688;2024-02-04T01:34:15;7.40;99.90
28171;DHT22;15458;53.346;-1.688;2024-02-04T01:36:41;7.40;99.90
28171;DHT22;15458;53.346;-1.688;2024-02-04T01:39:06;7.40;99.90
28171;DHT22;15458;53.346;-1.688;2024-02-04T01:41:32;7.40;99.90
28171;DHT22;15458;53.346;-1.688;2024-02-04T01:43:58;7.40;99.90
28171;DHT22;15458;53.346;-1.688;2024-02-04T01:46:24;7.40;99.90
28171;DHT22;15458;53.346;-1.688;2024-02-04T01:48:50;7.40;99.90
28171;DHT22;15458;53.346;-1.688;2024-02-04T01:51:17;7.40;99.90
28171;DHT22;15458;53.346;-1.688;2024-02-04T01:53:45;7.40;99.90
28171;DHT22;15458;53.346;-1.688;2024-02-04T01:56:12;7.40;99.90
28171;DHT22;15458;53.346;-1.688;2024-02-04T01:58:39;7.40;99.90
28171;DHT22;15458;53.346;-1.688;2024-02-04T02:01:04;7.40;99.90
28171;DHT22;15458;53.346;-1.688;2024-02-04T02:03:31;7.40;99.90
28171;DHT22;15458;53.346;-1.688;2024-02-04T02:05:57;7.40;99.90
28171;DHT22;15458;53.346;-1.688;2024-02-04T02:08:24;7.40;99.90
28171;DHT22;15458;53.346;-1.688;2024-02-04T02:10:51;7.40;99.90
28171;DHT22;15458;53.346;-1.688;2024-02-04T02:13:24;7.40;99.90
28171;DHT22;15458;53.346;-1.688;2024-02-04T02:15:58;7.30;99.90
28171;DHT22;15458;53.346;-1.688;2024-02-04T02:18:31;7.30;99.90
28171;DHT22;15458;53.346;-1.688;2024-02-04T02:23:43;7.30;99.90
28171;DHT22;15458;53.346;-1.688;2024-02-04T02:26:14;7.30;99.90
28171;DHT22;15458;53.346;-1.688;2024-02-04T02:28:40;7.30;99.90
28171;DHT22;15458;53.346;-1.688;2024-02-04T02:31:06;7.30;99.90
28171;DHT22;15458;53.346;-1.688;2024-02-04T02:33:32;7.20;99.90
28171;DHT22;15458;53.346;-1.688;2024-02-04T02:35:59;7.30;99.90
28171;DHT22;15458;53.346;-1.688;2024-02-04T02:38:37;7.30;99.90
28171;DHT22;15458;53.346;-1.688;2024-02-04T02:41:08;7.20;99.90
28171;DHT22;15458;53.346;-1.688;2024-02-04T02:43:35;7.30;99.90
28171;DHT22;15458;53.346;-1.688;2024-02-04T02:46:05;7.30;99.90
28171;DHT22;15458;53.346;-1.688;2024-02-04T02:48:32;7.30;99.90
28171;DHT22;15458;53.346;-1.688;2024-02-04T02:50:58;7.30;99.90
28171;DHT22;15458;53.346;-1.688;2024-02-04T02:53:25;7.30;99.90
28171;DHT22;15458;53.346;-1.688;2024-02-04T02:55:52;7.30;99.90
28171;DHT22;15458;53.346;-1.688;2024-02-04T02:58:18;7.30;99.90
28171;DHT22;15458;53.346;-1.688;2024-02-04T03:00:43;7.30;99.90
28171;DHT22;15458;53.346;-1.688;2024-02-04T03:03:10;7.30;99.90
28171;DHT22;15458;53.346;-1.688;2024-02-04T03:05:36;7.30;99.90
28171;DHT22;15458;53.346;-1.688;2024-02-04T03:08:03;7.30;99.90
28171;DHT22;15458;53.346;-1.688;2024-02-04T03:10:29;7.30;99.90
28171;DHT22;15458;53.346;-1.688;2024-02-04T03:12:55;7.30;99.90
28171;DHT22;15458;53.346;-1.688;2024-02-04T03:15:22;7.30;99.90
28171;DHT22;15458;53.346;-1.688;2024-02-04T03:17:47;7.30;99.90
28171;DHT22;15458;53.346;-1.688;2024-02-04T03:20:13;7.30;99.90
28171;DHT22;15458;53.346;-1.688;2024-02-04T03:22:39;7.30;99.90
28171;DHT22;15458;53.346;-1.688;2024-02-04T03:25:05;7.30;99.90
28171;DHT22;15458;53.346;-1.688;2024-02-04T03:27:31;7.30;99.90
28171;DHT22;15458;53.346;-1.688;2024-02-04T03:29:58;7.20;99.90
28171;DHT22;15458;53.346;-1.688;2024-02-04T03:32:23;7.30;99.90
28171;DHT22;15458;53.346;-1.688;2024-02-04T03:34:49;7.20;99.90
28171;DHT22;15458;53.346;-1.688;2024-02-04T03:37:15;7.20;99.90
28171;DHT22;15458;53.346;-1.688;2024-02-04T03:39:40;7.20;99.90
28171;DHT22;15458;53.346;-1.688;2024-02-04T03:42:06;7.20;99.90
28171;DHT22;15458;53.346;-1.688;2024-02-04T03:44:32;7.20;99.90
28171;DHT22;15458;53.346;-1.688;2024-02-04T03:46:57;7.10;99.90
28171;DHT22;15458;53.346;-1.688;2024-02-04T03:49:23;7.10;99.90
28171;DHT22;15458;53.346;-1.688;2024-02-04T03:51:49;7.10;99.90
28171;DHT22;15458;53.346;-1.688;2024-02-04T03:54:14;7.10;99.90
28171;DHT22;15458;53.346;-1.688;2024-02-04T03:56:41;7.10;99.90
28171;DHT22;15458;53.346;-1.688;2024-02-04T03:59:08;7.10;99.90
28171;DHT22;15458;53.346;-1.688;2024-02-04T04:01:36;7.10;99.90
28171;DHT22;15458;53.346;-1.688;2024-02-04T04:04:02;7.10;99.90
28171;DHT22;15458;53.346;-1.688;2024-02-04T04:06:27;7.10;99.90
28171;DHT22;15458;53.346;-1.688;2024-02-04T04:08:53;7.10;99.90
28171;DHT22;15458;53.346;-1.688;2024-02-04T04:11:19;7.10;99.90
28171;DHT22;15458;53.346;-1.688;2024-02-04T04:13:44;7.10;99.90
28171;DHT22;15458;53.346;-1.688;2024-02-04T04:16:10;7.10;99.90
28171;DHT22;15458;53.346;-1.688;2024-02-04T04:18:36;7.10;99.90
28171;DHT22;15458;53.346;-1.688;2024-02-04T04:21:01;7.10;99.90
28171;DHT22;15458;53.346;-1.688;2024-02-04T04:23:27;7.10;99.90
28171;DHT22;15458;53.346;-1.688;2024-02-04T04:25:53;7.10;99.90
28171;DHT22;15458;53.346;-1.688;2024-02-04T04:28:19;7.20;99.90
28171;DHT22;15458;53.346;-1.688;2024-02-04T04:30:44;7.20;99.90
28171;DHT22;15458;53.346;-1.688;2024-02-04T04:33:10;7.20;99.90
28171;DHT22;15458;53.346;-1.688;2024-02-04T04:35:37;7.20;99.90
28171;DHT22;15458;53.346;-1.688;2024-02-04T04:38:03;7.30;99.90
28171;DHT22;15458;53.346;-1.688;2024-02-04T04:40:29;7.30;99.90
28171;DHT22;15458;53.346;-1.688;2024-02-04T04:42:55;7.30;99.90
28171;DHT22;15458;53.346;-1.688;2024-02-04T04:45:21;7.30;99.90
28171;DHT22;15458;53.346;-1.688;2024-02-04T04:47:47;7.40;99.90
28171;DHT22;15458;53.346;-1.688;2024-02-04T04:50:12;7.40;99.90
28171;DHT22;15458;53.346;-1.688;2024-02-04T04:52:40;7.40;99.90
28171;DHT22;15458;53.346;-1.688;2024-02-04T04:55:06;7.40;99.90
28171;DHT22;15458;53.346;-1.688;2024-02-04T04:57:31;7.40;99.90
28171;DHT22;15458;53.346;-1.688;2024-02-04T04:59:57;7.40;99.90
28171;DHT22;15458;53.346;-1.688;2024-02-04T05:02:26;7.40;99.90
28171;DHT22;15458;53.346;-1.688;2024-02-04T05:04:51;7.40;99.90
28171;DHT22;15458;53.346;-1.688;2024-02-04T05:07:20;7.40;99.90
28171;DHT22;15458;53.346;-1.688;2024-02-04T05:09:47;7.40;99.90
28171;DHT22;15458;53.346;-1.688;2024-02-04T05:12:12;7.40;99.90
28171;DHT22;15458;53.346;-1.688;2024-02-04T05:14:38;7.40;99.90
28171;DHT22;15458;53.346;-1.688;2024-02-04T05:17:04;7.40;99.90
28171;DHT22;15458;53.346;-1.688;2024-02-04T05:19:31;7.40;99.90
28171;DHT22;15458;53.346;-1.688;2024-02-04T05:21:56;7.40;99.90
28171;DHT22;15458;53.346;-1.688;2024-02-04T05:24:22;7.40;99.90
28171;DHT22;15458;53.346;-1.688;2024-02-04T05:26:48;7.40;99.90
28171;DHT22;15458;53.346;-1.688;2024-02-04T05:29:13;7.40;99.90
28171;DHT22;15458;53.346;-1.688;2024-02-04T05:31:43;7.40;99.90
28171;DHT22;15458;53.346;-1.688;2024-02-04T05:34:09;7.40;99.90
28171;DHT22;15458;53.346;-1.688;2024-02-04T05:36:35;7.40;99.90
28171;DHT22;15458;53.346;-1.688;2024-02-04T05:39:11;7.40;99.90
28171;DHT22;15458;53.346;-1.688;2024-02-04T05:41:38;7.40;99.90
28171;DHT22;15458;53.346;-1.688;2024-02-04T05:44:04;7.40;99.90
28171;DHT22;15458;53.346;-1.688;2024-02-04T05:46:30;7.40;99.90
28171;DHT22;15458;53.346;-1.688;2024-02-04T05:48:55;7.40;99.90
28171;DHT22;15458;53.346;-1.688;2024-02-04T05:51:22;7.50;99.90
28171;DHT22;15458;53.346;-1.688;2024-02-04T05:53:48;7.50;99.90
28171;DHT22;15458;53.346;-1.688;2024-02-04T05:56:13;7.50;99.90
28171;DHT22;15458;53.346;-1.688;2024-02-04T05:58:40;7.50;99.90
28171;DHT22;15458;53.346;-1.688;2024-02-04T06:01:05;7.50;99.90
28171;DHT22;15458;53.346;-1.688;2024-02-04T06:03:31;7.50;99.90
28171;DHT22;15458;53.346;-1.688;2024-02-04T06:05:57;7.60;99.90
28171;DHT22;15458;53.346;-1.688;2024-02-04T06:08:22;7.60;99.90
28171;DHT22;15458;53.346;-1.688;2024-02-04T06:10:48;7.70;99.90
28171;DHT22;15458;53.346;-1.688;2024-02-04T06:13:14;7.70;99.90
28171;DHT22;15458;53.346;-1.688;2024-02-04T06:15:40;7.80;99.90
28171;DHT22;15458;53.346;-1.688;2024-02-04T06:18:06;7.80;99.90
28171;DHT22;15458;53.346;-1.688;2024-02-04T06:20:32;7.80;99.90
28171;DHT22;15458;53.346;-1.688;2024-02-04T06:22:58;7.80;99.90
28171;DHT22;15458;53.346;-1.688;2024-02-04T06:25:24;7.80;99.90
28171;DHT22;15458;53.346;-1.688;2024-02-04T06:27:50;7.90;99.90
28171;DHT22;15458;53.346;-1.688;2024-02-04T06:30:16;7.90;99.90
28171;DHT22;15458;53.346;-1.688;2024-02-04T06:32:42;7.90;99.90
28171;DHT22;15458;53.346;-1.688;2024-02-04T06:35:07;7.90;99.90
28171;DHT22;15458;53.346;-1.688;2024-02-04T06:37:33;7.90;99.90
28171;DHT22;15458;53.346;-1.688;2024-02-04T06:39:59;7.90;99.90
28171;DHT22;15458;53.346;-1.688;2024-02-04T06:42:24;7.90;99.90
28171;DHT22;15458;53.346;-1.688;2024-02-04T06:44:50;8.00;99.90
28171;DHT22;15458;53.346;-1.688;2024-02-04T06:47:16;8.00;99.90
28171;DHT22;15458;53.346;-1.688;2024-02-04T06:49:45;8.00;99.90
28171;DHT22;15458;53.346;-1.688;2024-02-04T06:52:11;8.00;99.90
28171;DHT22;15458;53.346;-1.688;2024-02-04T06:54:36;8.10;99.90
28171;DHT22;15458;53.346;-1.688;2024-02-04T06:57:02;8.10;99.90
28171;DHT22;15458;53.346;-1.688;2024-02-04T06:59:28;8.10;99.90
28171;DHT22;15458;53.346;-1.688;2024-02-04T07:01:54;8.10;99.90
28171;DHT22;15458;53.346;-1.688;2024-02-04T07:04:20;8.10;99.90
28171;DHT22;15458;53.346;-1.688;2024-02-04T07:06:50;8.20;99.90
28171;DHT22;15458;53.346;-1.688;2024-02-04T07:09:16;8.20;99.90
28171;DHT22;15458;53.346;-1.688;2024-02-04T07:11:42;8.20;99.90
28171;DHT22;15458;53.346;-1.688;2024-02-04T07:14:08;8.20;99.90
28171;DHT22;15458;53.346;-1.688;2024-02-04T07:16:34;8.20;99.90
28171;DHT22;15458;53.346;-1.688;2024-02-04T07:18:59;8.20;99.90
28171;DHT22;15458;53.346;-1.688;2024-02-04T07:21:25;8.20;99.90
28171;DHT22;15458;53.346;-1.688;2024-02-04T07:23:51;8.20;99.90
28171;DHT22;15458;53.346;-1.688;2024-02-04T07:26:16;8.30;99.90
28171;DHT22;15458;53.346;-1.688;2024-02-04T07:28:42;8.30;99.90
28171;DHT22;15458;53.346;-1.688;2024-02-04T07:31:08;8.30;99.90
28171;DHT22;15458;53.346;-1.688;2024-02-04T07:33:36;8.30;99.90
28171;DHT22;15458;53.346;-1.688;2024-02-04T07:36:02;8.30;99.90
28171;DHT22;15458;53.346;-1.688;2024-02-04T07:38:28;8.30;99.90
28171;DHT22;15458;53.346;-1.688;2024-02-04T07:40:54;8.40;99.90
28171;DHT22;15458;53.346;-1.688;2024-02-04T07:43:21;8.40;99.90
28171;DHT22;15458;53.346;-1.688;2024-02-04T07:45:47;8.40;99.90
28171;DHT22;15458;53.346;-1.688;2024-02-04T07:48:13;8.40;99.90
28171;DHT22;15458;53.346;-1.688;2024-02-04T07:50:39;8.40;99.90
28171;DHT22;15458;53.346;-1.688;2024-02-04T07:53:05;8.50;99.90
28171;DHT22;15458;53.346;-1.688;2024-02-04T07:55:31;8.50;99.90
28171;DHT22;15458;53.346;-1.688;2024-02-04T07:57:57;8.50;99.90
28171;DHT22;15458;53.346;-1.688;2024-02-04T08:00:22;8.50;99.90
28171;DHT22;15458;53.346;-1.688;2024-02-04T08:02:48;8.50;99.90
28171;DHT22;15458;53.346;-1.688;2024-02-04T08:05:14;8.50;99.90
28171;DHT22;15458;53.346;-1.688;2024-02-04T08:07:39;8.60;99.90
28171;DHT22;15458;53.346;-1.688;2024-02-04T08:10:07;8.60;99.90
28171;DHT22;15458;53.346;-1.688;2024-02-04T08:12:35;8.60;99.90
28171;DHT22;15458;53.346;-1.688;2024-02-04T08:15:01;8.60;99.90
28171;DHT22;15458;53.346;-1.688;2024-02-04T08:17:27;8.60;99.90
28171;DHT22;15458;53.346;-1.688;2024-02-04T08:19:56;8.70;99.90
28171;DHT22;15458;53.346;-1.688;2024-02-04T08:22:22;8.70;99.90
28171;DHT22;15458;53.346;-1.688;2024-02-04T08:24:48;8.70;99.90
28171;DHT22;15458;53.346;-1.688;2024-02-04T08:27:13;8.70;99.90
28171;DHT22;15458;53.346;-1.688;2024-02-04T08:29:43;8.70;99.90
28171;DHT22;15458;53.346;-1.688;2024-02-04T08:32:09;8.80;99.90
28171;DHT22;15458;53.346;-1.688;2024-02-04T08:34:35;8.80;99.90
28171;DHT22;15458;53.346;-1.688;2024-02-04T08:37:00;8.80;99.90
28171;DHT22;15458;53.346;-1.688;2024-02-04T08:39:26;8.80;99.90
28171;DHT22;15458;53.346;-1.688;2024-02-04T08:41:52;8.90;99.90
28171;DHT22;15458;53.346;-1.688;2024-02-04T08:44:17;8.90;99.90
28171;DHT22;15458;53.346;-1.688;2024-02-04T08:46:43;8.90;99.90
28171;DHT22;15458;53.346;-1.688;2024-02-04T08:49:09;8.90;99.90
28171;DHT22;15458;53.346;-1.688;2024-02-04T08:51:34;8.80;99.90
28171;DHT22;15458;53.346;-1.688;2024-02-04T08:54:00;8.80;99.90
28171;DHT22;15458;53.346;-1.688;2024-02-04T08:56:26;8.90;99.90
28171;DHT22;15458;53.346;-1.688;2024-02-04T08:58:51;8.80;99.90
28171;DHT22;15458;53.346;-1.688;2024-02-04T09:01:17;8.90;99.90
28171;DHT22;15458;53.346;-1.688;2024-02-04T09:03:44;8.90;99.90
28171;DHT22;15458;53.346;-1.688;2024-02-04T09:06:10;8.90;99.90
28171;DHT22;15458;53.346;-1.688;2024-02-04T09:08:35;8.90;99.90
28171;DHT22;15458;53.346;-1.688;2024-02-04T09:11:01;8.90;99.90
28171;DHT22;15458;53.346;-1.688;2024-02-04T09:13:27;8.90;99.90
28171;DHT22;15458;53.346;-1.688;2024-02-04T09:15:52;8.90;99.90
28171;DHT22;15458;53.346;-1.688;2024-02-04T09:18:20;8.90;99.90
28171;DHT22;15458;53.346;-1.688;2024-02-04T09:20:46;8.90;99.90
28171;DHT22;15458;53.346;-1.688;2024-02-04T09:23:12;9.00;99.90
28171;DHT22;15458;53.346;-1.688;2024-02-04T09:25:38;9.00;99.90
28171;DHT22;15458;53.346;-1.688;2024-02-04T09:28:04;9.00;99.90
28171;DHT22;15458;53.346;-1.688;2024-02-04T09:30:30;9.00;99.90
28171;DHT22;15458;53.346;-1.688;2024-02-04T09:32:56;9.00;99.90
28171;DHT22;15458;53.346;-1.688;2024-02-04T09:35:22;9.10;99.90
28171;DHT22;15458;53.346;-1.688;2024-02-04T09:37:48;9.10;99.90
28171;DHT22;15458;53.346;-1.688;2024-02-04T09:40:14;9.10;99.90
28171;DHT22;15458;53.346;-1.688;2024-02-04T09:42:40;9.10;99.90
28171;DHT22;15458;53.346;-1.688;2024-02-04T09:45:06;9.10;99.90
28171;DHT22;15458;53.346;-1.688;2024-02-04T09:47:34;9.20;99.90
28171;DHT22;15458;53.346;-1.688;2024-02-04T09:50:00;9.20;99.90
28171;DHT22;15458;53.346;-1.688;2024-02-04T09:52:30;9.20;99.90
28171;DHT22;15458;53.346;-1.688;2024-02-04T09:54:59;9.20;99.90
28171;DHT22;15458;53.346;-1.688;2024-02-04T09:57:32;9.20;99.90
28171;DHT22;15458;53.346;-1.688;2024-02-04T09:59:59;9.20;99.90
28171;DHT22;15458;53.346;-1.688;2024-02-04T10:02:25;9.20;99.90
28171;DHT22;15458;53.346;-1.688;2024-02-04T10:04:51;9.20;99.90
28171;DHT22;15458;53.346;-1.688;2024-02-04T10:07:17;9.20;99.90
28171;DHT22;15458;53.346;-1.688;2024-02-04T10:09:44;9.20;99.90
28171;DHT22;15458;53.346;-1.688;2024-02-04T10:12:10;9.20;99.90
28171;DHT22;15458;53.346;-1.688;2024-02-04T10:14:36;9.20;99.90
28171;DHT22;15458;53.346;-1.688;2024-02-04T10:17:01;9.30;99.90
28171;DHT22;15458;53.346;-1.688;2024-02-04T10:19:27;9.30;99.90
28171;DHT22;15458;53.346;-1.688;2024-02-04T10:22:03;9.30;99.90
28171;DHT22;15458;53.346;-1.688;2024-02-04T10:24:30;9.30;99.90
28171;DHT22;15458;53.346;-1.688;2024-02-04T10:26:56;9.20;99.90
28171;DHT22;15458;53.346;-1.688;2024-02-04T10:29:25;9.20;99.90
28171;DHT22;15458;53.346;-1.688;2024-02-04T10:31:55;9.20;99.90
28171;DHT22;15458;53.346;-1.688;2024-02-04T10:34:22;9.20;99.90
28171;DHT22;15458;53.346;-1.688;2024-02-04T10:36:49;9.20;99.90
28171;DHT22;15458;53.346;-1.688;2024-02-04T10:39:14;9.20;99.90
28171;DHT22;15458;53.346;-1.688;2024-02-04T10:41:49;9.20;99.90
28171;DHT22;15458;53.346;-1.688;2024-02-04T10:44:19;9.20;99.90
28171;DHT22;15458;53.346;-1.688;2024-02-04T10:46:47;9.20;99.90
28171;DHT22;15458;53.346;-1.688;2024-02-04T10:49:17;9.10;99.90
28171;DHT22;15458;53.346;-1.688;2024-02-04T10:51:45;9.10;99.90
28171;DHT22;15458;53.346;-1.688;2024-02-04T10:54:15;9.10;99.90
28171;DHT22;15458;53.346;-1.688;2024-02-04T10:56:45;9.10;99.90
28171;DHT22;15458;53.346;-1.688;2024-02-04T10:59:15;9.10;99.90
28171;DHT22;15458;53.346;-1.688;2024-02-04T11:01:43;9.20;99.90
28171;DHT22;15458;53.346;-1.688;2024-02-04T11:04:11;9.20;99.90
28171;DHT22;15458;53.346;-1.688;2024-02-04T11:06:38;9.10;99.90
28171;DHT22;15458;53.346;-1.688;2024-02-04T11:09:07;9.20;99.90
28171;DHT22;15458;53.346;-1.688;2024-02-04T11:11:36;9.20;99.90
28171;DHT22;15458;53.346;-1.688;2024-02-04T11:14:05;9.20;99.90
28171;DHT22;15458;53.346;-1.688;2024-02-04T11:19:10;9.30;99.90
28171;DHT22;15458;53.346;-1.688;2024-02-04T11:24:59;9.40;99.90
28171;DHT22;15458;53.346;-1.688;2024-02-04T11:27:29;9.40;99.90
28171;DHT22;15458;53.346;-1.688;2024-02-04T11:29:55;9.50;99.90
28171;DHT22;15458;53.346;-1.688;2024-02-04T11:32:21;9.50;99.90
28171;DHT22;15458;53.346;-1.688;2024-02-04T11:34:49;9.50;99.90
28171;DHT22;15458;53.346;-1.688;2024-02-04T11:37:18;9.60;99.90
28171;DHT22;15458;53.346;-1.688;2024-02-04T11:39:57;9.60;99.90
28171;DHT22;15458;53.346;-1.688;2024-02-04T11:42:24;9.60;99.90
28171;DHT22;15458;53.346;-1.688;2024-02-04T11:44:50;9.60;99.90
28171;DHT22;15458;53.346;-1.688;2024-02-04T11:47:26;9.70;99.90
28171;DHT22;15458;53.346;-1.688;2024-02-04T11:49:56;9.70;99.90
28171;DHT22;15458;53.346;-1.688;2024-02-04T11:52:23;9.70;99.90
28171;DHT22;15458;53.346;-1.688;2024-02-04T11:54:49;9.80;99.90
28171;DHT22;15458;53.346;-1.688;2024-02-04T11:57:15;9.80;99.90
28171;DHT22;15458;53.346;-1.688;2024-02-04T11:59:42;9.90;99.90
28171;DHT22;15458;53.346;-1.688;2024-02-04T12:02:10;9.90;99.90
28171;DHT22;15458;53.346;-1.688;2024-02-04T12:04:37;10.00;99.90
28171;DHT22;15458;53.346;-1.688;2024-02-04T12:07:05;10.00;99.90
28171;DHT22;15458;53.346;-1.688;2024-02-04T12:09:31;10.10;99.90
28171;DHT22;15458;53.346;-1.688;2024-02-04T12:11:57;10.10;99.90
28171;DHT22;15458;53.346;-1.688;2024-02-04T12:14:23;10.10;99.90
28171;DHT22;15458;53.346;-1.688;2024-02-04T12:16:50;10.20;99.90
28171;DHT22;15458;53.346;-1.688;2024-02-04T12:19:16;10.20;99.90
28171;DHT22;15458;53.346;-1.688;2024-02-04T12:21:42;10.20;99.90
28171;DHT22;15458;53.346;-1.688;2024-02-04T12:24:07;10.30;99.90
28171;DHT22;15458;53.346;-1.688;2024-02-04T12:26:33;10.30;99.90
28171;DHT22;15458;53.346;-1.688;2024-02-04T12:29:00;10.40;99.90
28171;DHT22;15458;53.346;-1.688;2024-02-04T12:31:26;10.40;99.90
28171;DHT22;15458;53.346;-1.688;2024-02-04T12:33:58;10.50;99.90
28171;DHT22;15458;53.346;-1.688;2024-02-04T12:36:25;10.50;99.90
28171;DHT22;15458;53.346;-1.688;2024-02-04T12:38:55;10.50;99.90
28171;DHT22;15458;53.346;-1.688;2024-02-04T12:41:25;10.50;99.90
28171;DHT22;15458;53.346;-1.688;2024-02-04T12:43:55;10.50;99.90
28171;DHT22;15458;53.346;-1.688;2024-02-04T12:46:22;10.50;99.90
28171;DHT22;15458;53.346;-1.688;2024-02-04T12:48:55;10.50;99.90
28171;DHT22;15458;53.346;-1.688;2024-02-04T12:51:29;10.50;99.90
28171;DHT22;15458;53.346;-1.688;2024-02-04T12:54:11;10.50;99.90
28171;DHT22;15458;53.346;-1.688;2024-02-04T12:56:44;10.50;99.90
28171;DHT22;15458;53.346;-1.688;2024-02-04T12:59:10;10.50;99.90
28171;DHT22;15458;53.346;-1.688;2024-02-04T13:01:39;10.50;99.90
28171;DHT22;15458;53.346;-1.688;2024-02-04T13:04:05;10.50;99.90
28171;DHT22;15458;53.346;-1.688;2024-02-04T13:06:31;10.50;99.90
28171;DHT22;15458;53.346;-1.688;2024-02-04T13:08:57;10.50;99.90
28171;DHT22;15458;53.346;-1.688;2024-02-04T13:11:24;10.50;99.90
28171;DHT22;15458;53.346;-1.688;2024-02-04T13:13:50;10.50;99.90
28171;DHT22;15458;53.346;-1.688;2024-02-04T13:16:16;10.50;99.90
28171;DHT22;15458;53.346;-1.688;2024-02-04T13:18:51;10.60;99.90
28171;DHT22;15458;53.346;-1.688;2024-02-04T13:21:17;10.60;99.90
28171;DHT22;15458;53.346;-1.688;2024-02-04T13:23:45;10.60;99.90
28171;DHT22;15458;53.346;-1.688;2024-02-04T13:26:11;10.60;99.90
28171;DHT22;15458;53.346;-1.688;2024-02-04T13:28:37;10.60;99.90
28171;DHT22;15458;53.346;-1.688;2024-02-04T13:31:04;10.60;99.90
28171;DHT22;15458;53.346;-1.688;2024-02-04T13:33:30;10.70;99.90
28171;DHT22;15458;53.346;-1.688;2024-02-04T13:35:55;10.70;99.90
28171;DHT22;15458;53.346;-1.688;2024-02-04T13:38:22;10.70;99.90
28171;DHT22;15458;53.346;-1.688;2024-02-04T13:40:47;10.70;99.90
28171;DHT22;15458;53.346;-1.688;2024-02-04T13:43:13;10.70;99.90
28171;DHT22;15458;53.346;-1.688;2024-02-04T13:45:39;10.70;99.90
28171;DHT22;15458;53.346;-1.688;2024-02-04T13:48:05;10.70;99.90
28171;DHT22;15458;53.346;-1.688;2024-02-04T13:50:31;10.70;99.90
28171;DHT22;15458;53.346;-1.688;2024-02-04T13:52:57;10.80;99.90
28171;DHT22;15458;53.346;-1.688;2024-02-04T13:55:24;10.80;99.90
28171;DHT22;15458;53.346;-1.688;2024-02-04T13:57:50;10.80;99.90
28171;DHT22;15458;53.346;-1.688;2024-02-04T14:00:16;10.80;99.90
28171;DHT22;15458;53.346;-1.688;2024-02-04T14:02:43;10.80;99.90
28171;DHT22;15458;53.346;-1.688;2024-02-04T14:05:09;10.80;99.90
28171;DHT22;15458;53.346;-1.688;2024-02-04T14:07:34;10.80;99.90
28171;DHT22;15458;53.346;-1.688;2024-02-04T14:10:00;10.80;99.90
28171;DHT22;15458;53.346;-1.688;2024-02-04T14:12:26;10.80;99.90
28171;DHT22;15458;53.346;-1.688;2024-02-04T14:14:51;10.90;99.90
28171;DHT22;15458;53.346;-1.688;2024-02-04T14:17:19;10.90;99.90
28171;DHT22;15458;53.346;-1.688;2024-02-04T14:19:45;10.80;99.90
28171;DHT22;15458;53.346;-1.688;2024-02-04T14:22:15;10.80;99.90
28171;DHT22;15458;53.346;-1.688;2024-02-04T14:24:42;10.80;99.90
28171;DHT22;15458;53.346;-1.688;2024-02-04T14:27:07;10.90;99.90
28171;DHT22;15458;53.346;-1.688;2024-02-04T14:29:34;10.90;99.90
28171;DHT22;15458;53.346;-1.688;2024-02-04T14:32:00;10.90;99.90
28171;DHT22;15458;53.346;-1.688;2024-02-04T14:34:26;10.90;99.90
28171;DHT22;15458;53.346;-1.688;2024-02-04T14:36:53;10.90;99.90
28171;DHT22;15458;53.346;-1.688;2024-02-04T14:39:19;10.90;99.90
28171;DHT22;15458;53.346;-1.688;2024-02-04T14:41:45;11.00;99.90
28171;DHT22;15458;53.346;-1.688;2024-02-04T14:44:11;10.90;99.90
28171;DHT22;15458;53.346;-1.688;2024-02-04T14:46:37;11.00;99.90
28171;DHT22;15458;53.346;-1.688;2024-02-04T14:49:05;11.00;99.90
28171;DHT22;15458;53.346;-1.688;2024-02-04T14:51:31;11.00;99.90
28171;DHT22;15458;53.346;-1.688;2024-02-04T14:53:58;11.00;99.90
28171;DHT22;15458;53.346;-1.688;2024-02-04T14:56:23;11.00;99.90
28171;DHT22;15458;53.346;-1.688;2024-02-04T14:58:50;11.00;99.90
28171;DHT22;15458;53.346;-1.688;2024-02-04T15:01:15;11.10;99.90
28171;DHT22;15458;53.346;-1.688;2024-02-04T15:03:41;11.10;99.90
28171;DHT22;15458;53.346;-1.688;2024-02-04T15:06:07;11.10;99.90
28171;DHT22;15458;53.346;-1.688;2024-02-04T15:08:33;11.10;99.90
28171;DHT22;15458;53.346;-1.688;2024-02-04T15:10:58;11.10;99.90
28171;DHT22;15458;53.346;-1.688;2024-02-04T15:13:25;11.10;99.90
28171;DHT22;15458;53.346;-1.688;2024-02-04T15:15:51;11.20;99.90
28171;DHT22;15458;53.346;-1.688;2024-02-04T15:18:17;11.20;99.90
28171;DHT22;15458;53.346;-1.688;2024-02-04T15:20:43;11.20;99.90
28171;DHT22;15458;53.346;-1.688;2024-02-04T15:23:09;11.20;99.90
28171;DHT22;15458;53.346;-1.688;2024-02-04T15:25:35;11.30;99.90
28171;DHT22;15458;53.346;-1.688;2024-02-04T15:28:01;11.30;99.90
28171;DHT22;15458;53.346;-1.688;2024-02-04T15:30:30;11.30;99.90
28171;DHT22;15458;53.346;-1.688;2024-02-04T15:32:57;11.30;99.90